Terminal Aerodrome Forecast
Issued by NWS

Home | Current Version | Previous Version | Text Only | Print | Product List | Glossary On
Versions: 1 2 3 4 5 6 7 8 9 10 11 12 13 14
000
FTUS45 KREV 111124
TAFCXP
TAF
KCXP 111124Z 1112/1212 VRB04KT P6SM FEW050 SCT200
     FM111600 12008KT P6SM FEW050 SCT200
     FM112000 23009KT P6SM FEW050 SCT110 BKN200
     FM120500 VRB04KT P6SM BKN110 BKN200=

USA.gov is the U.S. government's official web portal to all federal, state and local government web resources and services.